sensor_id;sensor_type;location;lat;lon;timestamp;temperature;humidity
25512;DHT22;13414;44.534;18.700;2023-02-12T00:01:24;1.70;1.00
25512;DHT22;13414;44.534;18.700;2023-02-12T00:03:53;1.80;1.00
25512;DHT22;13414;44.534;18.700;2023-02-12T00:06:21;1.80;1.00
25512;DHT22;13414;44.534;18.700;2023-02-12T00:08:50;1.90;1.00
25512;DHT22;13414;44.534;18.700;2023-02-12T00:11:21;1.90;1.00
25512;DHT22;13414;44.534;18.700;2023-02-12T00:13:49;1.90;1.00
25512;DHT22;13414;44.534;18.700;2023-02-12T00:16:17;2.00;1.00
25512;DHT22;13414;44.534;18.700;2023-02-12T00:18:46;2.00;1.00
25512;DHT22;13414;44.534;18.700;2023-02-12T00:21:13;2.10;1.00
25512;DHT22;13414;44.534;18.700;2023-02-12T00:23:42;2.10;1.00
25512;DHT22;13414;44.534;18.700;2023-02-12T00:26:11;2.10;1.00
25512;DHT22;13414;44.534;18.700;2023-02-12T00:28:47;2.10;1.00
25512;DHT22;13414;44.534;18.700;2023-02-12T00:31:17;2.10;1.00
25512;DHT22;13414;44.534;18.700;2023-02-12T00:33:44;2.10;1.00
25512;DHT22;13414;44.534;18.700;2023-02-12T00:36:14;2.10;1.00
25512;DHT22;13414;44.534;18.700;2023-02-12T00:38:44;2.00;1.00
25512;DHT22;13414;44.534;18.700;2023-02-12T00:41:12;2.00;1.00
25512;DHT22;13414;44.534;18.700;2023-02-12T00:43:39;2.10;1.00
25512;DHT22;13414;44.534;18.700;2023-02-12T00:46:08;2.10;1.00
25512;DHT22;13414;44.534;18.700;2023-02-12T00:48:36;2.10;1.00
25512;DHT22;13414;44.534;18.700;2023-02-12T00:51:05;2.10;1.00
25512;DHT22;13414;44.534;18.700;2023-02-12T00:53:32;2.10;1.00
25512;DHT22;13414;44.534;18.700;2023-02-12T00:56:01;2.20;1.00
25512;DHT22;13414;44.534;18.700;2023-02-12T00:58:28;2.20;1.00
25512;DHT22;13414;44.534;18.700;2023-02-12T01:00:56;2.30;1.00
25512;DHT22;13414;44.534;18.700;2023-02-12T01:03:24;2.20;1.00
25512;DHT22;13414;44.534;18.700;2023-02-12T01:05:52;2.20;1.00
25512;DHT22;13414;44.534;18.700;2023-02-12T01:08:20;2.30;1.00
25512;DHT22;13414;44.534;18.700;2023-02-12T01:10:54;2.30;1.00
25512;DHT22;13414;44.534;18.700;2023-02-12T01:13:21;2.30;1.00
25512;DHT22;13414;44.534;18.700;2023-02-12T01:16:00;2.30;1.00
25512;DHT22;13414;44.534;18.700;2023-02-12T01:18:29;2.40;1.00
25512;DHT22;13414;44.534;18.700;2023-02-12T01:20:56;2.30;1.00
25512;DHT22;13414;44.534;18.700;2023-02-12T01:23:24;2.40;1.00
25512;DHT22;13414;44.534;18.700;2023-02-12T01:25:52;2.40;1.00
25512;DHT22;13414;44.534;18.700;2023-02-12T01:28:20;2.40;1.00
25512;DHT22;13414;44.534;18.700;2023-02-12T01:30:47;2.40;1.00
25512;DHT22;13414;44.534;18.700;2023-02-12T01:33:15;2.50;1.00
25512;DHT22;13414;44.534;18.700;2023-02-12T01:35:44;2.50;1.00
25512;DHT22;13414;44.534;18.700;2023-02-12T01:38:11;2.60;1.00
25512;DHT22;13414;44.534;18.700;2023-02-12T01:40:38;2.50;1.00
25512;DHT22;13414;44.534;18.700;2023-02-12T01:43:08;2.50;1.00
25512;DHT22;13414;44.534;18.700;2023-02-12T01:45:49;2.50;1.00
25512;DHT22;13414;44.534;18.700;2023-02-12T01:48:19;2.40;1.00
25512;DHT22;13414;44.534;18.700;2023-02-12T01:50:50;2.40;1.00
25512;DHT22;13414;44.534;18.700;2023-02-12T01:53:20;2.50;1.00
25512;DHT22;13414;44.534;18.700;2023-02-12T01:55:49;2.50;1.00
25512;DHT22;13414;44.534;18.700;2023-02-12T01:58:18;2.50;1.00
25512;DHT22;13414;44.534;18.700;2023-02-12T02:00:46;2.50;1.00
25512;DHT22;13414;44.534;18.700;2023-02-12T02:03:13;2.60;1.00
25512;DHT22;13414;44.534;18.700;2023-02-12T02:05:46;2.60;1.00
25512;DHT22;13414;44.534;18.700;2023-02-12T02:08:19;2.50;1.00
25512;DHT22;13414;44.534;18.700;2023-02-12T02:10:46;2.50;1.00
25512;DHT22;13414;44.534;18.700;2023-02-12T02:13:14;2.50;1.00
25512;DHT22;13414;44.534;18.700;2023-02-12T02:16:05;2.50;1.00
25512;DHT22;13414;44.534;18.700;2023-02-12T02:18:40;2.60;1.00
25512;DHT22;13414;44.534;18.700;2023-02-12T02:21:40;2.50;1.00
25512;DHT22;13414;44.534;18.700;2023-02-12T02:24:39;2.60;1.00
25512;DHT22;13414;44.534;18.700;2023-02-12T02:27:22;2.60;1.00
25512;DHT22;13414;44.534;18.700;2023-02-12T02:33:21;2.70;1.00
25512;DHT22;13414;44.534;18.700;2023-02-12T02:35:54;2.60;1.00
25512;DHT22;13414;44.534;18.700;2023-02-12T02:38:32;2.70;1.00
25512;DHT22;13414;44.534;18.700;2023-02-12T02:41:03;2.80;1.00
25512;DHT22;13414;44.534;18.700;2023-02-12T02:43:35;2.90;1.00
25512;DHT22;13414;44.534;18.700;2023-02-12T02:46:08;2.90;1.00
25512;DHT22;13414;44.534;18.700;2023-02-12T02:48:41;3.00;1.00
25512;DHT22;13414;44.534;18.700;2023-02-12T02:51:14;3.00;1.00
25512;DHT22;13414;44.534;18.700;2023-02-12T02:53:45;2.90;1.00
25512;DHT22;13414;44.534;18.700;2023-02-12T02:56:18;2.90;1.00
25512;DHT22;13414;44.534;18.700;2023-02-12T02:58:49;3.00;1.00
25512;DHT22;13414;44.534;18.700;2023-02-12T03:01:22;3.00;1.00
25512;DHT22;13414;44.534;18.700;2023-02-12T03:03:56;3.00;1.00
25512;DHT22;13414;44.534;18.700;2023-02-12T03:06:28;2.90;1.00
25512;DHT22;13414;44.534;18.700;2023-02-12T03:09:01;2.70;1.00
25512;DHT22;13414;44.534;18.700;2023-02-12T03:11:31;2.70;1.00
25512;DHT22;13414;44.534;18.700;2023-02-12T03:14:02;2.60;1.00
25512;DHT22;13414;44.534;18.700;2023-02-12T03:16:35;2.70;1.00
25512;DHT22;13414;44.534;18.700;2023-02-12T03:19:09;2.80;1.00
25512;DHT22;13414;44.534;18.700;2023-02-12T03:21:43;2.90;1.00
25512;DHT22;13414;44.534;18.700;2023-02-12T03:24:17;2.90;1.00
25512;DHT22;13414;44.534;18.700;2023-02-12T03:26:51;2.90;1.00
25512;DHT22;13414;44.534;18.700;2023-02-12T03:29:20;2.90;1.00
25512;DHT22;13414;44.534;18.700;2023-02-12T03:32:00;2.90;1.00
25512;DHT22;13414;44.534;18.700;2023-02-12T03:34:34;2.90;1.00
25512;DHT22;13414;44.534;18.700;2023-02-12T03:37:09;2.90;1.00
25512;DHT22;13414;44.534;18.700;2023-02-12T03:39:44;2.90;1.00
25512;DHT22;13414;44.534;18.700;2023-02-12T03:42:23;2.90;1.00
25512;DHT22;13414;44.534;18.700;2023-02-12T03:44:56;2.90;1.00
25512;DHT22;13414;44.534;18.700;2023-02-12T03:47:34;2.90;1.00
25512;DHT22;13414;44.534;18.700;2023-02-12T03:50:09;3.00;1.00
25512;DHT22;13414;44.534;18.700;2023-02-12T03:52:39;3.00;1.00
25512;DHT22;13414;44.534;18.700;2023-02-12T03:55:07;2.80;1.00
25512;DHT22;13414;44.534;18.700;2023-02-12T03:57:38;2.80;1.00
25512;DHT22;13414;44.534;18.700;2023-02-12T04:00:10;2.70;1.00
25512;DHT22;13414;44.534;18.700;2023-02-12T04:02:42;2.60;1.00
25512;DHT22;13414;44.534;18.700;2023-02-12T04:05:16;2.50;1.00
25512;DHT22;13414;44.534;18.700;2023-02-12T04:07:44;2.40;1.00
25512;DHT22;13414;44.534;18.700;2023-02-12T04:10:12;2.50;1.00
25512;DHT22;13414;44.534;18.700;2023-02-12T04:12:48;2.60;1.00
25512;DHT22;13414;44.534;18.700;2023-02-12T04:15:26;2.70;1.00
25512;DHT22;13414;44.534;18.700;2023-02-12T04:18:06;2.70;1.00
25512;DHT22;13414;44.534;18.700;2023-02-12T04:20:41;2.70;1.00
25512;DHT22;13414;44.534;18.700;2023-02-12T04:23:19;2.70;1.00
25512;DHT22;13414;44.534;18.700;2023-02-12T04:25:53;2.70;1.00
25512;DHT22;13414;44.534;18.700;2023-02-12T04:28:32;2.80;1.00
25512;DHT22;13414;44.534;18.700;2023-02-12T04:31:05;2.90;1.00
25512;DHT22;13414;44.534;18.700;2023-02-12T04:33:41;2.90;1.00
25512;DHT22;13414;44.534;18.700;2023-02-12T04:36:14;3.00;1.00
25512;DHT22;13414;44.534;18.700;2023-02-12T04:38:46;3.00;1.00
25512;DHT22;13414;44.534;18.700;2023-02-12T04:41:14;3.10;1.00
25512;DHT22;13414;44.534;18.700;2023-02-12T04:43:42;3.00;1.00
25512;DHT22;13414;44.534;18.700;2023-02-12T04:46:09;3.00;1.00
25512;DHT22;13414;44.534;18.700;2023-02-12T04:48:51;3.00;1.00
25512;DHT22;13414;44.534;18.700;2023-02-12T04:51:19;3.00;1.00
25512;DHT22;13414;44.534;18.700;2023-02-12T04:53:47;3.00;1.00
25512;DHT22;13414;44.534;18.700;2023-02-12T04:56:15;3.00;1.00
25512;DHT22;13414;44.534;18.700;2023-02-12T04:58:43;3.00;1.00
25512;DHT22;13414;44.534;18.700;2023-02-12T05:01:10;3.10;1.00
25512;DHT22;13414;44.534;18.700;2023-02-12T05:03:39;2.90;1.00
25512;DHT22;13414;44.534;18.700;2023-02-12T05:06:08;2.90;1.00
25512;DHT22;13414;44.534;18.700;2023-02-12T05:08:35;3.00;1.00
25512;DHT22;13414;44.534;18.700;2023-02-12T05:11:04;2.90;1.00
25512;DHT22;13414;44.534;18.700;2023-02-12T05:13:32;3.00;1.00
25512;DHT22;13414;44.534;18.700;2023-02-12T05:16:02;3.00;1.00
25512;DHT22;13414;44.534;18.700;2023-02-12T05:18:30;3.00;1.00
25512;DHT22;13414;44.534;18.700;2023-02-12T05:21:00;3.10;1.00
25512;DHT22;13414;44.534;18.700;2023-02-12T05:23:29;3.00;1.00
25512;DHT22;13414;44.534;18.700;2023-02-12T05:25:58;3.00;1.00
25512;DHT22;13414;44.534;18.700;2023-02-12T05:28:26;2.90;1.00
25512;DHT22;13414;44.534;18.700;2023-02-12T05:30:53;3.00;1.00
25512;DHT22;13414;44.534;18.700;2023-02-12T05:33:21;3.00;1.00
25512;DHT22;13414;44.534;18.700;2023-02-12T05:35:48;3.10;1.00
25512;DHT22;13414;44.534;18.700;2023-02-12T05:38:17;3.10;1.00
25512;DHT22;13414;44.534;18.700;2023-02-12T05:40:44;3.10;1.00
25512;DHT22;13414;44.534;18.700;2023-02-12T05:43:12;3.20;1.00
25512;DHT22;13414;44.534;18.700;2023-02-12T05:45:39;3.30;1.00
25512;DHT22;13414;44.534;18.700;2023-02-12T05:48:09;3.40;1.00
25512;DHT22;13414;44.534;18.700;2023-02-12T05:50:37;3.40;1.00
25512;DHT22;13414;44.534;18.700;2023-02-12T05:53:07;3.40;1.00
25512;DHT22;13414;44.534;18.700;2023-02-12T05:55:35;3.40;1.00
25512;DHT22;13414;44.534;18.700;2023-02-12T05:58:03;3.40;1.00
25512;DHT22;13414;44.534;18.700;2023-02-12T06:00:30;3.40;1.00
25512;DHT22;13414;44.534;18.700;2023-02-12T06:02:58;3.40;1.00
25512;DHT22;13414;44.534;18.700;2023-02-12T06:05:25;3.40;1.00
25512;DHT22;13414;44.534;18.700;2023-02-12T06:07:53;3.50;1.00
25512;DHT22;13414;44.534;18.700;2023-02-12T06:10:20;3.50;1.00
25512;DHT22;13414;44.534;18.700;2023-02-12T06:12:52;3.50;1.00
25512;DHT22;13414;44.534;18.700;2023-02-12T06:15:20;3.60;1.00
25512;DHT22;13414;44.534;18.700;2023-02-12T06:17:47;3.60;1.00
25512;DHT22;13414;44.534;18.700;2023-02-12T06:20:16;3.60;1.00
25512;DHT22;13414;44.534;18.700;2023-02-12T06:22:44;3.60;1.00
25512;DHT22;13414;44.534;18.700;2023-02-12T06:25:11;3.60;1.00
25512;DHT22;13414;44.534;18.700;2023-02-12T06:27:38;3.60;1.00
25512;DHT22;13414;44.534;18.700;2023-02-12T06:30:09;3.60;1.00
25512;DHT22;13414;44.534;18.700;2023-02-12T06:32:36;3.60;1.00
25512;DHT22;13414;44.534;18.700;2023-02-12T06:35:04;3.60;1.00
25512;DHT22;13414;44.534;18.700;2023-02-12T06:37:32;3.60;1.00
25512;DHT22;13414;44.534;18.700;2023-02-12T06:40:02;3.70;1.00
25512;DHT22;13414;44.534;18.700;2023-02-12T06:42:29;3.70;1.00
25512;DHT22;13414;44.534;18.700;2023-02-12T06:44:57;3.70;1.00
25512;DHT22;13414;44.534;18.700;2023-02-12T06:47:26;3.70;1.00
25512;DHT22;13414;44.534;18.700;2023-02-12T06:49:54;3.70;1.00
25512;DHT22;13414;44.534;18.700;2023-02-12T06:52:22;3.60;1.00
25512;DHT22;13414;44.534;18.700;2023-02-12T06:54:49;3.60;1.00
25512;DHT22;13414;44.534;18.700;2023-02-12T06:57:17;3.60;1.00
25512;DHT22;13414;44.534;18.700;2023-02-12T06:59:44;3.70;1.00
25512;DHT22;13414;44.534;18.700;2023-02-12T07:02:12;3.80;1.00
25512;DHT22;13414;44.534;18.700;2023-02-12T07:04:41;3.80;1.00
25512;DHT22;13414;44.534;18.700;2023-02-12T07:07:08;3.80;1.00
25512;DHT22;13414;44.534;18.700;2023-02-12T07:09:36;3.90;1.00
25512;DHT22;13414;44.534;18.700;2023-02-12T07:12:03;3.90;1.00
25512;DHT22;13414;44.534;18.700;2023-02-12T07:14:31;3.90;1.00
25512;DHT22;13414;44.534;18.700;2023-02-12T07:16:58;3.90;1.00
25512;DHT22;13414;44.534;18.700;2023-02-12T07:19:28;3.90;1.00
25512;DHT22;13414;44.534;18.700;2023-02-12T07:21:58;3.90;1.00
25512;DHT22;13414;44.534;18.700;2023-02-12T07:24:25;3.80;1.00
25512;DHT22;13414;44.534;18.700;2023-02-12T07:26:53;3.80;1.00
25512;DHT22;13414;44.534;18.700;2023-02-12T07:29:20;3.70;1.00
25512;DHT22;13414;44.534;18.700;2023-02-12T07:31:48;3.80;1.00
25512;DHT22;13414;44.534;18.700;2023-02-12T07:34:15;3.70;1.00
25512;DHT22;13414;44.534;18.700;2023-02-12T07:36:43;3.70;1.00
25512;DHT22;13414;44.534;18.700;2023-02-12T07:39:12;3.70;1.00
25512;DHT22;13414;44.534;18.700;2023-02-12T07:41:39;3.60;1.00
25512;DHT22;13414;44.534;18.700;2023-02-12T07:44:09;3.60;1.00
25512;DHT22;13414;44.534;18.700;2023-02-12T07:46:40;3.60;1.00
25512;DHT22;13414;44.534;18.700;2023-02-12T07:49:11;3.60;1.00
25512;DHT22;13414;44.534;18.700;2023-02-12T07:51:40;3.70;1.00
25512;DHT22;13414;44.534;18.700;2023-02-12T07:54:08;3.80;1.00
25512;DHT22;13414;44.534;18.700;2023-02-12T07:56:39;3.90;1.00
25512;DHT22;13414;44.534;18.700;2023-02-12T07:59:10;4.00;1.00
25512;DHT22;13414;44.534;18.700;2023-02-12T08:01:39;4.10;1.00
25512;DHT22;13414;44.534;18.700;2023-02-12T08:04:09;4.20;1.00
25512;DHT22;13414;44.534;18.700;2023-02-12T08:06:39;4.30;1.00
25512;DHT22;13414;44.534;18.700;2023-02-12T08:09:10;4.30;1.00
25512;DHT22;13414;44.534;18.700;2023-02-12T08:11:41;4.30;1.00
25512;DHT22;13414;44.534;18.700;2023-02-12T08:14:11;4.20;1.00
25512;DHT22;13414;44.534;18.700;2023-02-12T08:16:40;4.10;1.00
25512;DHT22;13414;44.534;18.700;2023-02-12T08:19:09;4.00;1.00
25512;DHT22;13414;44.534;18.700;2023-02-12T08:21:36;3.90;1.00
25512;DHT22;13414;44.534;18.700;2023-02-12T08:24:04;3.80;1.00
25512;DHT22;13414;44.534;18.700;2023-02-12T08:26:33;3.70;1.00
25512;DHT22;13414;44.534;18.700;2023-02-12T08:29:04;3.70;1.00
25512;DHT22;13414;44.534;18.700;2023-02-12T08:31:33;3.60;1.00
25512;DHT22;13414;44.534;18.700;2023-02-12T08:34:01;3.60;1.00
25512;DHT22;13414;44.534;18.700;2023-02-12T08:36:30;3.70;1.00
25512;DHT22;13414;44.534;18.700;2023-02-12T08:38:58;3.70;1.00
25512;DHT22;13414;44.534;18.700;2023-02-12T08:41:27;3.90;1.00
25512;DHT22;13414;44.534;18.700;2023-02-12T08:43:56;4.00;1.00
25512;DHT22;13414;44.534;18.700;2023-02-12T08:46:27;4.10;1.00
25512;DHT22;13414;44.534;18.700;2023-02-12T08:48:56;4.20;1.00
25512;DHT22;13414;44.534;18.700;2023-02-12T08:51:26;4.30;1.00
25512;DHT22;13414;44.534;18.700;2023-02-12T08:53:56;4.50;1.00
25512;DHT22;13414;44.534;18.700;2023-02-12T08:56:25;4.60;1.00
25512;DHT22;13414;44.534;18.700;2023-02-12T08:58:53;4.60;1.00
25512;DHT22;13414;44.534;18.700;2023-02-12T09:01:22;4.60;1.00
25512;DHT22;13414;44.534;18.700;2023-02-12T09:03:51;4.60;1.00
25512;DHT22;13414;44.534;18.700;2023-02-12T09:06:21;4.60;1.00
25512;DHT22;13414;44.534;18.700;2023-02-12T09:08:50;4.60;1.00
25512;DHT22;13414;44.534;18.700;2023-02-12T09:11:21;4.60;1.00
25512;DHT22;13414;44.534;18.700;2023-02-12T09:13:56;4.80;1.00
25512;DHT22;13414;44.534;18.700;2023-02-12T09:16:25;4.90;1.00
25512;DHT22;13414;44.534;18.700;2023-02-12T09:18:54;5.00;1.00
25512;DHT22;13414;44.534;18.700;2023-02-12T09:21:22;5.10;1.00
25512;DHT22;13414;44.534;18.700;2023-02-12T09:23:50;5.30;1.00
25512;DHT22;13414;44.534;18.700;2023-02-12T09:26:20;5.40;1.00
25512;DHT22;13414;44.534;18.700;2023-02-12T09:28:49;5.70;1.00
25512;DHT22;13414;44.534;18.700;2023-02-12T09:31:19;5.90;1.00
25512;DHT22;13414;44.534;18.700;2023-02-12T09:33:49;6.20;1.00
25512;DHT22;13414;44.534;18.700;2023-02-12T09:36:18;6.60;1.00
25512;DHT22;13414;44.534;18.700;2023-02-12T09:38:46;6.90;1.00
25512;DHT22;13414;44.534;18.700;2023-02-12T09:41:30;7.10;1.00
25512;DHT22;13414;44.534;18.700;2023-02-12T09:44:06;7.30;1.00
25512;DHT22;13414;44.534;18.700;2023-02-12T09:46:38;7.40;1.00
25512;DHT22;13414;44.534;18.700;2023-02-12T09:49:09;7.40;1.00
25512;DHT22;13414;44.534;18.700;2023-02-12T09:51:40;7.40;1.00
25512;DHT22;13414;44.534;18.700;2023-02-12T09:54:11;7.60;1.00
25512;DHT22;13414;44.534;18.700;2023-02-12T09:56:44;7.70;1.00
25512;DHT22;13414;44.534;18.700;2023-02-12T09:59:28;8.00;1.00
25512;DHT22;13414;44.534;18.700;2023-02-12T10:01:57;8.30;1.00
25512;DHT22;13414;44.534;18.700;2023-02-12T10:04:25;8.30;1.00
25512;DHT22;13414;44.534;18.700;2023-02-12T10:07:00;8.20;1.00
25512;DHT22;13414;44.534;18.700;2023-02-12T10:09:32;8.20;1.00
25512;DHT22;13414;44.534;18.700;2023-02-12T10:12:07;8.20;1.00
25512;DHT22;13414;44.534;18.700;2023-02-12T10:14:48;8.20;1.00
25512;DHT22;13414;44.534;18.700;2023-02-12T10:17:24;8.40;1.00
25512;DHT22;13414;44.534;18.700;2023-02-12T10:20:05;8.80;1.00
25512;DHT22;13414;44.534;18.700;2023-02-12T10:22:42;9.00;1.00
25512;DHT22;13414;44.534;18.700;2023-02-12T10:25:19;9.20;1.00
25512;DHT22;13414;44.534;18.700;2023-02-12T10:27:50;9.40;1.00
25512;DHT22;13414;44.534;18.700;2023-02-12T10:30:21;9.40;1.00
25512;DHT22;13414;44.534;18.700;2023-02-12T10:32:53;9.40;1.00
25512;DHT22;13414;44.534;18.700;2023-02-12T10:35:23;9.50;1.00
25512;DHT22;13414;44.534;18.700;2023-02-12T10:37:57;9.60;1.00
25512;DHT22;13414;44.534;18.700;2023-02-12T10:40:30;9.60;1.00
25512;DHT22;13414;44.534;18.700;2023-02-12T10:43:10;9.60;1.00
25512;DHT22;13414;44.534;18.700;2023-02-12T10:45:39;9.70;1.00
25512;DHT22;13414;44.534;18.700;2023-02-12T10:48:09;9.80;1.00
25512;DHT22;13414;44.534;18.700;2023-02-12T10:50:47;9.80;1.00
25512;DHT22;13414;44.534;18.700;2023-02-12T10:53:21;9.80;1.00
25512;DHT22;13414;44.534;18.700;2023-02-12T10:55:49;9.90;1.00
25512;DHT22;13414;44.534;18.700;2023-02-12T10:58:30;10.00;1.00
25512;DHT22;13414;44.534;18.700;2023-02-12T11:01:00;10.30;1.00
25512;DHT22;13414;44.534;18.700;2023-02-12T11:03:29;10.50;1.00
25512;DHT22;13414;44.534;18.700;2023-02-12T11:06:11;10.70;1.00
25512;DHT22;13414;44.534;18.700;2023-02-12T11:08:42;10.90;1.00
25512;DHT22;13414;44.534;18.700;2023-02-12T11:11:12;10.80;1.00
25512;DHT22;13414;44.534;18.700;2023-02-12T11:13:46;10.80;1.00
25512;DHT22;13414;44.534;18.700;2023-02-12T11:16:26;10.70;1.00
25512;DHT22;13414;44.534;18.700;2023-02-12T11:18:59;10.80;1.00
25512;DHT22;13414;44.534;18.700;2023-02-12T11:21:30;10.90;1.00
25512;DHT22;13414;44.534;18.700;2023-02-12T11:24:21;10.90;1.00
25512;DHT22;13414;44.534;18.700;2023-02-12T11:26:49;10.70;1.00
25512;DHT22;13414;44.534;18.700;2023-02-12T11:29:18;10.40;1.00
25512;DHT22;13414;44.534;18.700;2023-02-12T11:31:59;10.20;1.00
25512;DHT22;13414;44.534;18.700;2023-02-12T11:34:27;10.30;1.00
25512;DHT22;13414;44.534;18.700;2023-02-12T11:36:56;10.40;1.00
25512;DHT22;13414;44.534;18.700;2023-02-12T11:39:28;10.50;1.00
25512;DHT22;13414;44.534;18.700;2023-02-12T11:41:59;10.30;1.00
25512;DHT22;13414;44.534;18.700;2023-02-12T11:44:34;10.20;1.00
25512;DHT22;13414;44.534;18.700;2023-02-12T11:47:05;10.30;1.00
25512;DHT22;13414;44.534;18.700;2023-02-12T11:49:38;10.40;1.00
25512;DHT22;13414;44.534;18.700;2023-02-12T11:52:07;10.30;1.00
25512;DHT22;13414;44.534;18.700;2023-02-12T11:54:46;10.30;1.00
25512;DHT22;13414;44.534;18.700;2023-02-12T11:57:35;10.50;1.00
25512;DHT22;13414;44.534;18.700;2023-02-12T12:00:05;10.70;1.00
25512;DHT22;13414;44.534;18.700;2023-02-12T12:02:41;10.90;1.00
25512;DHT22;13414;44.534;18.700;2023-02-12T12:05:13;11.00;1.00
25512;DHT22;13414;44.534;18.700;2023-02-12T12:07:45;11.00;1.00
25512;DHT22;13414;44.534;18.700;2023-02-12T12:10:19;10.70;1.00
25512;DHT22;13414;44.534;18.700;2023-02-12T12:12:49;10.50;1.00
25512;DHT22;13414;44.534;18.700;2023-02-12T12:15:22;10.50;1.00
25512;DHT22;13414;44.534;18.700;2023-02-12T12:18:20;10.40;1.00
25512;DHT22;13414;44.534;18.700;2023-02-12T12:21:21;10.30;1.00
25512;DHT22;13414;44.534;18.700;2023-02-12T12:23:53;10.50;1.00
25512;DHT22;13414;44.534;18.700;2023-02-12T12:26:26;10.70;1.00
25512;DHT22;13414;44.534;18.700;2023-02-12T12:28:59;10.80;1.00
25512;DHT22;13414;44.534;18.700;2023-02-12T12:31:33;10.80;1.00
25512;DHT22;13414;44.534;18.700;2023-02-12T12:34:06;10.80;1.00
25512;DHT22;13414;44.534;18.700;2023-02-12T12:37:15;10.70;1.00
25512;DHT22;13414;44.534;18.700;2023-02-12T12:39:57;10.60;1.00
25512;DHT22;13414;44.534;18.700;2023-02-12T12:42:48;10.50;1.00
25512;DHT22;13414;44.534;18.700;2023-02-12T12:45:48;10.50;1.00
25512;DHT22;13414;44.534;18.700;2023-02-12T12:49:12;10.50;1.00
25512;DHT22;13414;44.534;18.700;2023-02-12T12:52:11;10.40;1.00
25512;DHT22;13414;44.534;18.700;2023-02-12T12:55:19;10.20;1.00
25512;DHT22;13414;44.534;18.700;2023-02-12T12:57:58;10.30;1.00
25512;DHT22;13414;44.534;18.700;2023-02-12T13:00:45;10.00;1.00
25512;DHT22;13414;44.534;18.700;2023-02-12T13:07:10;10.30;1.00
25512;DHT22;13414;44.534;18.700;2023-02-12T13:09:57;10.40;1.00
25512;DHT22;13414;44.534;18.700;2023-02-12T13:12:44;10.50;1.00
25512;DHT22;13414;44.534;18.700;2023-02-12T13:15:29;10.60;1.00
25512;DHT22;13414;44.534;18.700;2023-02-12T13:18:03;10.60;1.00
25512;DHT22;13414;44.534;18.700;2023-02-12T13:20:39;10.70;1.00
25512;DHT22;13414;44.534;18.700;2023-02-12T13:23:13;10.70;1.00
25512;DHT22;13414;44.534;18.700;2023-02-12T13:25:49;10.80;1.00
25512;DHT22;13414;44.534;18.700;2023-02-12T13:28:27;10.70;1.00
25512;DHT22;13414;44.534;18.700;2023-02-12T13:30:58;10.30;1.00
25512;DHT22;13414;44.534;18.700;2023-02-12T13:33:31;10.00;1.00
25512;DHT22;13414;44.534;18.700;2023-02-12T13:36:04;9.80;1.00
25512;DHT22;13414;44.534;18.700;2023-02-12T13:38:35;9.70;1.00
25512;DHT22;13414;44.534;18.700;2023-02-12T13:41:08;9.60;1.00
25512;DHT22;13414;44.534;18.700;2023-02-12T13:43:48;9.50;1.00
25512;DHT22;13414;44.534;18.700;2023-02-12T13:46:28;9.60;1.00
25512;DHT22;13414;44.534;18.700;2023-02-12T13:49:04;9.70;1.00
25512;DHT22;13414;44.534;18.700;2023-02-12T13:51:42;9.90;1.00
25512;DHT22;13414;44.534;18.700;2023-02-12T13:54:23;9.90;1.00
25512;DHT22;13414;44.534;18.700;2023-02-12T13:56:56;9.80;1.00
25512;DHT22;13414;44.534;18.700;2023-02-12T13:59:47;9.80;1.00
25512;DHT22;13414;44.534;18.700;2023-02-12T14:02:41;9.80;1.00
25512;DHT22;13414;44.534;18.700;2023-02-12T14:05:30;9.60;1.00
25512;DHT22;13414;44.534;18.700;2023-02-12T14:08:03;9.70;1.00
25512;DHT22;13414;44.534;18.700;2023-02-12T14:10:36;9.80;1.00
25512;DHT22;13414;44.534;18.700;2023-02-12T14:13:18;9.70;1.00
25512;DHT22;13414;44.534;18.700;2023-02-12T14:15:48;9.70;1.00
25512;DHT22;13414;44.534;18.700;2023-02-12T14:18:27;9.60;1.00
25512;DHT22;13414;44.534;18.700;2023-02-12T14:27:29;9.70;1.00
25512;DHT22;13414;44.534;18.700;2023-02-12T14:30:01;9.70;1.00
25512;DHT22;13414;44.534;18.700;2023-02-12T14:33:08;9.80;1.00
25512;DHT22;13414;44.534;18.700;2023-02-12T14:35:39;9.80;1.00
25512;DHT22;13414;44.534;18.700;2023-02-12T14:41:15;9.80;1.00
25512;DHT22;13414;44.534;18.700;2023-02-12T14:50:01;9.70;1.00
25512;DHT22;13414;44.534;18.700;2023-02-12T14:52:38;9.60;1.00
25512;DHT22;13414;44.534;18.700;2023-02-12T14:55:21;9.50;1.00
25512;DHT22;13414;44.534;18.700;2023-02-12T14:57:54;9.50;1.00
25512;DHT22;13414;44.534;18.700;2023-02-12T15:00:27;9.40;1.00
25512;DHT22;13414;44.534;18.700;2023-02-12T15:03:00;9.40;1.00
25512;DHT22;13414;44.534;18.700;2023-02-12T15:05:36;9.30;1.00
25512;DHT22;13414;44.534;18.700;2023-02-12T15:08:14;9.30;1.00
25512;DHT22;13414;44.534;18.700;2023-02-12T15:10:47;9.20;1.00
25512;DHT22;13414;44.534;18.700;2023-02-12T15:13:22;9.20;1.00
25512;DHT22;13414;44.534;18.700;2023-02-12T15:15:53;9.20;1.00
25512;DHT22;13414;44.534;18.700;2023-02-12T15:18:25;9.10;1.00
25512;DHT22;13414;44.534;18.700;2023-02-12T15:21:01;8.90;1.00
25512;DHT22;13414;44.534;18.700;2023-02-12T15:23:37;8.80;1.00
25512;DHT22;13414;44.534;18.700;2023-02-12T15:26:11;8.80;1.00
25512;DHT22;13414;44.534;18.700;2023-02-12T15:28:39;8.70;1.00
25512;DHT22;13414;44.534;18.700;2023-02-12T15:31:08;8.60;1.00
25512;DHT22;13414;44.534;18.700;2023-02-12T15:33:39;8.60;1.00
25512;DHT22;13414;44.534;18.700;2023-02-12T15:36:09;8.60;1.00
25512;DHT22;13414;44.534;18.700;2023-02-12T15:38:39;8.50;1.00
25512;DHT22;13414;44.534;18.700;2023-02-12T15:41:24;8.50;1.00
25512;DHT22;13414;44.534;18.700;2023-02-12T15:43:52;8.40;1.00
25512;DHT22;13414;44.534;18.700;2023-02-12T15:46:20;8.40;1.00
25512;DHT22;13414;44.534;18.700;2023-02-12T15:48:50;8.30;1.00
25512;DHT22;13414;44.534;18.700;2023-02-12T15:51:26;8.30;1.00
25512;DHT22;13414;44.534;18.700;2023-02-12T15:53:58;8.30;1.00
25512;DHT22;13414;44.534;18.700;2023-02-12T15:56:27;8.30;1.00
25512;DHT22;13414;44.534;18.700;2023-02-12T15:58:57;8.20;1.00
25512;DHT22;13414;44.534;18.700;2023-02-12T16:01:28;8.20;1.00
25512;DHT22;13414;44.534;18.700;2023-02-12T16:03:58;8.10;1.00
25512;DHT22;13414;44.534;18.700;2023-02-12T16:06:28;8.10;1.00
25512;DHT22;13414;44.534;18.700;2023-02-12T16:09:05;8.10;1.00
25512;DHT22;13414;44.534;18.700;2023-02-12T16:11:34;8.00;1.00
25512;DHT22;13414;44.534;18.700;2023-02-12T16:14:04;8.00;1.00
25512;DHT22;13414;44.534;18.700;2023-02-12T16:16:42;8.00;1.00
25512;DHT22;13414;44.534;18.700;2023-02-12T16:19:18;7.90;1.00
25512;DHT22;13414;44.534;18.700;2023-02-12T16:21:49;7.90;1.00
25512;DHT22;13414;44.534;18.700;2023-02-12T16:24:26;7.90;1.00
25512;DHT22;13414;44.534;18.700;2023-02-12T16:26:55;7.80;1.00
25512;DHT22;13414;44.534;18.700;2023-02-12T16:29:23;7.70;1.00
25512;DHT22;13414;44.534;18.700;2023-02-12T16:31:56;7.70;1.00
25512;DHT22;13414;44.534;18.700;2023-02-12T16:34:28;7.60;1.00
25512;DHT22;13414;44.534;18.700;2023-02-12T16:36:56;7.60;1.00
25512;DHT22;13414;44.534;18.700;2023-02-12T16:42:37;7.40;1.00
25512;DHT22;13414;44.534;18.700;2023-02-12T16:45:37;7.30;1.00